createdAt,value
2023-02-11T00:01:33.508Z,100363.60
2023-02-11T00:04:03.464Z,100349.20
2023-02-11T00:06:35.300Z,100344.20
2023-02-11T00:09:04.322Z,100357.40
2023-02-11T00:11:32.100Z,100371.80
2023-02-11T00:14:04.233Z,100378.20
2023-02-11T00:16:32.945Z,100381.40
2023-02-11T00:19:02.443Z,100390.40
2023-02-11T00:21:30.880Z,100371.00
2023-02-11T00:24:02.266Z,100377.20
2023-02-11T00:26:35.421Z,100378.60
2023-02-11T00:29:07.251Z,100389.40
2023-02-11T00:31:35.483Z,100391.00
2023-02-11T00:34:03.390Z,100383.80
2023-02-11T00:36:31.284Z,100400.40
2023-02-11T00:39:00.191Z,100393.60
2023-02-11T00:41:28.055Z,100402.60
2023-02-11T00:43:55.923Z,100417.40
2023-02-11T00:46:24.628Z,100420.00
2023-02-11T00:48:55.212Z,100431.80
2023-02-11T00:51:26.865Z,100420.80
2023-02-11T00:53:55.762Z,100425.00
2023-02-11T00:56:25.873Z,100431.00
2023-02-11T00:58:54.074Z,100426.40
2023-02-11T01:01:22.199Z,100427.80
2023-02-11T01:03:50.175Z,100440.60
2023-02-11T01:06:19.734Z,100454.00
2023-02-11T01:08:47.461Z,100466.00
2023-02-11T01:11:19.454Z,100464.80
2023-02-11T01:13:49.572Z,100483.40
2023-02-11T01:16:20.607Z,100486.20
2023-02-11T01:18:50.841Z,100483.60
2023-02-11T01:21:19.519Z,100485.40
2023-02-11T01:23:47.388Z,100496.80
2023-02-11T01:26:15.265Z,100486.20
2023-02-11T01:28:43.037Z,100483.20
2023-02-11T01:31:10.918Z,100480.20
2023-02-11T01:33:38.938Z,100483.80
2023-02-11T01:36:08.148Z,100485.00
2023-02-11T01:38:36.274Z,100482.60
2023-02-11T01:41:11.329Z,100473.00
2023-02-11T01:43:46.626Z,100469.60
2023-02-11T01:46:38.578Z,100482.40
2023-02-11T01:49:16.885Z,100506.40
2023-02-11T01:51:51.513Z,100513.20
2023-02-11T01:54:45.044Z,100527.20
2023-02-11T01:57:25.141Z,100524.80
2023-02-11T02:00:16.520Z,100536.80
2023-02-11T02:03:12.002Z,100548.20
2023-02-11T02:05:58.211Z,100552.80
2023-02-11T02:08:41.276Z,100557.80
2023-02-11T02:11:10.248Z,100566.00
2023-02-11T02:13:39.274Z,100571.00
2023-02-11T02:16:13.385Z,100557.40
2023-02-11T02:19:31.829Z,100553.20
2023-02-11T02:22:47.899Z,100565.40
2023-02-11T02:25:30.660Z,100568.40
2023-02-11T02:28:33.886Z,100568.60
2023-02-11T02:31:28.369Z,100572.60
2023-02-11T02:34:06.704Z,100568.80
2023-02-11T02:36:46.224Z,100576.20
2023-02-11T02:39:27.723Z,100578.00
2023-02-11T02:41:57.093Z,100576.60
2023-02-11T02:44:29.877Z,100588.40
2023-02-11T02:47:00.107Z,100591.80
2023-02-11T02:49:28.221Z,100607.20
2023-02-11T02:52:35.978Z,100614.20
2023-02-11T02:55:50.601Z,100629.20
2023-02-11T02:58:55.741Z,100618.40
2023-02-11T03:02:02.133Z,100621.60
2023-02-11T03:04:57.363Z,100633.40
2023-02-11T03:07:59.213Z,100634.40
2023-02-11T03:10:36.584Z,100635.00
2023-02-11T03:13:07.827Z,100640.20
2023-02-11T03:15:43.293Z,100653.40
2023-02-11T03:18:18.782Z,100659.60
2023-02-11T03:20:52.067Z,100666.60
2023-02-11T03:23:35.394Z,100663.00
2023-02-11T03:26:23.377Z,100679.40
2023-02-11T03:29:06.977Z,100683.20
2023-02-11T03:31:47.804Z,100683.60
2023-02-11T03:34:25.749Z,100697.80
2023-02-11T03:37:19.241Z,100712.40
2023-02-11T03:39:55.962Z,100710.80
2023-02-11T03:42:30.169Z,100707.60
2023-02-11T03:45:10.814Z,100714.20
2023-02-11T03:47:43.513Z,100733.60
2023-02-11T03:50:15.691Z,100757.20
2023-02-11T03:52:49.817Z,100775.60
2023-02-11T03:55:23.495Z,100786.20
2023-02-11T03:57:52.373Z,100787.20
2023-02-11T04:00:20.123Z,100785.80
2023-02-11T04:02:47.816Z,100778.20
2023-02-11T04:05:16.837Z,100774.80
2023-02-11T04:07:44.788Z,100785.00
2023-02-11T04:10:13.427Z,100788.00
2023-02-11T04:12:41.232Z,100793.00
2023-02-11T04:15:09.562Z,100801.00
2023-02-11T04:17:39.393Z,100799.20
2023-02-11T04:20:08.389Z,100794.00
2023-02-11T04:22:38.118Z,100784.20
2023-02-11T04:25:08.437Z,100795.60
2023-02-11T04:27:36.814Z,100800.80
2023-02-11T04:30:07.310Z,100810.20
2023-02-11T04:32:35.506Z,100831.80
2023-02-11T04:35:05.137Z,100845.40
2023-02-11T04:37:32.868Z,100853.40
2023-02-11T04:40:01.388Z,100866.60
2023-02-11T04:42:29.653Z,100880.80
2023-02-11T04:44:57.714Z,100890.40
2023-02-11T04:47:25.595Z,100901.00
2023-02-11T04:49:53.924Z,100910.20
2023-02-11T04:52:21.664Z,100929.40
2023-02-11T04:54:49.423Z,100936.80
2023-02-11T04:57:17.478Z,100949.40
2023-02-11T04:59:45.505Z,100955.40
2023-02-11T05:02:13.415Z,100962.40
2023-02-11T05:04:42.267Z,100972.20
2023-02-11T05:07:10.223Z,100984.80
2023-02-11T05:09:38.474Z,100992.60
2023-02-11T05:12:06.720Z,101000.80
2023-02-11T05:14:34.792Z,101011.00
2023-02-11T05:17:02.687Z,101015.00
2023-02-11T05:19:32.022Z,101023.40
2023-02-11T05:22:02.985Z,101034.20
2023-02-11T05:24:35.118Z,101044.20
2023-02-11T05:27:03.284Z,101039.60
2023-02-11T05:29:30.975Z,101049.40
2023-02-11T05:32:00.306Z,101049.20
2023-02-11T05:34:28.042Z,101058.80
2023-02-11T05:36:57.160Z,101069.80
2023-02-11T05:39:24.889Z,101064.20
2023-02-11T05:41:52.714Z,101074.40
2023-02-11T05:44:20.742Z,101091.80
2023-02-11T05:46:49.737Z,101098.60
2023-02-11T05:49:20.650Z,101115.00
2023-02-11T05:51:49.103Z,101130.60
2023-02-11T05:54:17.604Z,101141.20
2023-02-11T05:56:46.709Z,101149.00
2023-02-11T05:59:15.033Z,101158.00
2023-02-11T06:01:43.228Z,101171.20
2023-02-11T06:04:11.314Z,101187.80
2023-02-11T06:06:39.115Z,101190.40
2023-02-11T06:09:07.036Z,101197.60
2023-02-11T06:11:34.768Z,101200.40
2023-02-11T06:14:02.450Z,101214.40
2023-02-11T06:16:31.675Z,101209.40
2023-02-11T06:18:59.386Z,101213.60
2023-02-11T06:21:42.458Z,101211.00
2023-02-11T06:24:12.058Z,101215.40
2023-02-11T06:26:40.994Z,101217.20
2023-02-11T06:29:09.016Z,101221.40
2023-02-11T06:31:39.773Z,101220.60
2023-02-11T06:34:10.421Z,101215.80
2023-02-11T06:36:41.877Z,101215.00
2023-02-11T06:39:10.383Z,101221.80
2023-02-11T06:41:38.110Z,101228.20
2023-02-11T06:44:07.021Z,101232.20
2023-02-11T06:46:35.212Z,101230.00
2023-02-11T06:49:03.507Z,101238.80
2023-02-11T06:51:31.487Z,101248.60
2023-02-11T06:53:59.188Z,101258.00
2023-02-11T06:56:27.625Z,101257.20
2023-02-11T06:58:57.209Z,101273.00
2023-02-11T07:01:28.634Z,101277.40
2023-02-11T07:03:56.908Z,101282.40
2023-02-11T07:06:28.073Z,101288.40
2023-02-11T07:08:56.587Z,101296.00
2023-02-11T07:11:29.081Z,101305.60
2023-02-11T07:14:04.156Z,101323.20
2023-02-11T07:16:36.477Z,101326.40
2023-02-11T07:19:04.173Z,101332.80
2023-02-11T07:21:34.920Z,101335.00
2023-02-11T07:24:11.294Z,101330.60
2023-02-11T07:26:39.552Z,101334.20
2023-02-11T07:29:08.397Z,101337.40
2023-02-11T07:31:37.576Z,101346.20
2023-02-11T07:34:06.120Z,101349.20
2023-02-11T07:36:34.910Z,101365.20
2023-02-11T07:39:03.787Z,101376.00
2023-02-11T07:41:31.500Z,101376.80
2023-02-11T07:43:59.628Z,101381.00
2023-02-11T07:46:28.104Z,101386.60
2023-02-11T07:48:56.029Z,101395.60
2023-02-11T07:51:31.900Z,101404.60
2023-02-11T07:54:01.543Z,101410.60
2023-02-11T07:56:30.654Z,101417.00
2023-02-11T07:59:03.518Z,101428.60
2023-02-11T08:01:31.525Z,101435.40
2023-02-11T08:04:01.931Z,101439.00
2023-02-11T08:06:34.260Z,101448.60
2023-02-11T08:09:09.491Z,101450.60
2023-02-11T08:11:37.469Z,101458.40
2023-02-11T08:14:05.686Z,101458.80
2023-02-11T08:16:37.108Z,101466.00
2023-02-11T08:19:11.873Z,101474.80
2023-02-11T08:21:41.358Z,101481.80
2023-02-11T08:24:10.645Z,101487.20
2023-02-11T08:26:38.821Z,101490.40
2023-02-11T08:29:12.148Z,101494.00
2023-02-11T08:31:44.342Z,101498.60
2023-02-11T08:34:14.803Z,101502.40
2023-02-11T08:36:43.009Z,101507.00
2023-02-11T08:39:21.662Z,101519.40
2023-02-11T08:41:53.743Z,101530.00
2023-02-11T08:44:23.275Z,101540.40
2023-02-11T08:46:52.425Z,101543.00
2023-02-11T08:49:20.672Z,101555.20
2023-02-11T08:51:49.594Z,101558.40
2023-02-11T08:54:19.695Z,101567.40
2023-02-11T08:56:51.854Z,101577.80
2023-02-11T08:59:20.169Z,101583.40
2023-02-11T09:01:48.586Z,101586.00
2023-02-11T09:04:17.945Z,101594.80
2023-02-11T09:06:48.476Z,101599.40
2023-02-11T09:09:16.750Z,101598.40
2023-02-11T09:11:46.049Z,101607.40
2023-02-11T09:14:23.117Z,101607.00
2023-02-11T09:16:53.520Z,101619.60
2023-02-11T09:19:23.039Z,101621.00
2023-02-11T09:21:50.752Z,101627.40
2023-02-11T09:24:20.536Z,101639.20
2023-02-11T09:26:49.646Z,101635.60
2023-02-11T09:29:17.697Z,101642.40
2023-02-11T09:31:45.811Z,101651.40
2023-02-11T09:34:14.329Z,101656.40
2023-02-11T09:36:42.549Z,101668.00
2023-02-11T09:39:18.442Z,101675.60
2023-02-11T09:42:18.694Z,101686.40
2023-02-11T09:44:48.041Z,101685.20
2023-02-11T09:47:30.400Z,101691.20
2023-02-11T09:50:13.786Z,101692.20
2023-02-11T09:52:56.143Z,101689.40
2023-02-11T09:55:39.893Z,101699.80
2023-02-11T09:58:26.773Z,101700.80
2023-02-11T10:01:27.151Z,101711.00
2023-02-11T10:04:45.099Z,101722.40
2023-02-11T10:07:37.242Z,101735.40
2023-02-11T10:10:42.215Z,101750.40
2023-02-11T10:13:32.753Z,101763.60
2023-02-11T10:16:16.111Z,101784.20
2023-02-11T10:19:08.977Z,101785.40
2023-02-11T10:21:54.102Z,101800.60
2023-02-11T10:24:24.848Z,101824.80
2023-02-11T10:26:53.101Z,101831.80
2023-02-11T10:29:46.531Z,101836.00
2023-02-11T10:32:41.904Z,101835.60
2023-02-11T10:35:21.752Z,101847.20
2023-02-11T10:37:50.828Z,101853.80
2023-02-11T10:40:27.320Z,101859.00
2023-02-11T10:43:04.294Z,101864.20
2023-02-11T10:45:40.676Z,101874.60
2023-02-11T10:48:38.049Z,101879.60
2023-02-11T10:51:26.942Z,101883.00
2023-02-11T10:54:08.354Z,101893.40
2023-02-11T10:56:46.522Z,101899.80
2023-02-11T10:59:18.124Z,101911.20
2023-02-11T11:01:52.947Z,101909.60
2023-02-11T11:04:31.352Z,101918.60
2023-02-11T11:07:30.499Z,101931.20
2023-02-11T11:10:31.913Z,101945.40
2023-02-11T11:12:59.772Z,101956.00
2023-02-11T11:15:31.422Z,101961.60
2023-02-11T11:18:22.642Z,101967.60
2023-02-11T11:21:13.662Z,101980.80
2023-02-11T11:23:54.400Z,101983.80
2023-02-11T11:26:30.321Z,101987.00
2023-02-11T11:29:12.459Z,101998.00
2023-02-11T11:32:04.994Z,102004.20
2023-02-11T11:34:41.959Z,102018.00
2023-02-11T11:37:36.333Z,102027.40
2023-02-11T11:40:13.963Z,102040.40
2023-02-11T11:42:45.147Z,102052.80
2023-02-11T11:45:25.010Z,102057.60
2023-02-11T11:48:28.289Z,102073.80
2023-02-11T11:51:02.359Z,102077.40
2023-02-11T11:54:20.729Z,102084.20
2023-02-11T11:57:20.758Z,102085.40
2023-02-11T11:59:48.809Z,102092.20
2023-02-11T12:02:51.135Z,102084.00
2023-02-11T12:05:31.839Z,102095.20
2023-02-11T12:08:44.345Z,102102.20
2023-02-11T12:12:18.615Z,102092.00
2023-02-11T12:15:07.708Z,102093.20
2023-02-11T12:18:06.238Z,102102.20
2023-02-11T12:21:10.734Z,102108.60
2023-02-11T12:23:52.138Z,102114.60
2023-02-11T12:26:35.182Z,102124.00
2023-02-11T12:29:27.817Z,102127.80
2023-02-11T12:32:30.004Z,102134.00
2023-02-11T12:35:21.724Z,102137.20
2023-02-11T12:38:18.869Z,102139.20
2023-02-11T12:41:53.342Z,102138.00
2023-02-11T12:44:46.231Z,102140.40
2023-02-11T12:47:44.469Z,102149.80
2023-02-11T12:50:53.898Z,102161.60
2023-02-11T12:54:07.038Z,102164.60
2023-02-11T12:57:15.144Z,102169.40
2023-02-11T13:00:22.282Z,102161.20
2023-02-11T13:03:02.362Z,102170.60
2023-02-11T13:05:44.634Z,102171.80
2023-02-11T13:08:23.176Z,102171.00
2023-02-11T13:10:59.029Z,102172.60
2023-02-11T13:13:47.424Z,102182.60
2023-02-11T13:16:50.340Z,102190.40
2023-02-11T13:19:52.561Z,102189.80
2023-02-11T13:22:33.878Z,102194.60
2023-02-11T13:25:39.107Z,102194.40
2023-02-11T13:28:29.559Z,102195.20
2023-02-11T13:31:03.696Z,102193.00
2023-02-11T13:33:43.253Z,102197.20
2023-02-11T13:36:16.595Z,102197.20
2023-02-11T13:38:56.254Z,102201.20
2023-02-11T13:41:42.354Z,102204.00
2023-02-11T13:44:22.977Z,102218.00
2023-02-11T13:47:05.432Z,102220.80
2023-02-11T13:49:40.656Z,102228.00
2023-02-11T13:52:39.523Z,102229.40
2023-02-11T13:55:27.737Z,102233.20
2023-02-11T13:58:13.988Z,102237.80
2023-02-11T14:00:51.805Z,102241.00
2023-02-11T14:03:40.342Z,102243.60
2023-02-11T14:06:28.117Z,102252.60
2023-02-11T14:09:14.386Z,102255.80
2023-02-11T14:11:50.975Z,102262.60
2023-02-11T14:14:31.023Z,102265.60
2023-02-11T14:17:10.886Z,102280.40
2023-02-11T14:19:45.998Z,102290.60
2023-02-11T14:22:49.554Z,102292.20
2023-02-11T14:25:29.160Z,102289.00
2023-02-11T14:28:26.730Z,102281.20
2023-02-11T14:31:12.781Z,102289.60
2023-02-11T14:34:08.035Z,102291.40
2023-02-11T14:36:44.837Z,102301.20
2023-02-11T14:39:45.362Z,102303.00
2023-02-11T14:42:21.022Z,102310.20
2023-02-11T14:44:52.546Z,102321.80
2023-02-11T14:47:31.544Z,102320.20
2023-02-11T14:49:59.357Z,102330.00
2023-02-11T14:52:34.822Z,102329.40
2023-02-11T14:55:09.217Z,102333.20
2023-02-11T14:57:38.367Z,102334.20
2023-02-11T15:00:23.251Z,102341.40
2023-02-11T15:03:02.778Z,102351.60
2023-02-11T15:05:32.268Z,102354.40
2023-02-11T15:08:08.470Z,102358.40
2023-02-11T15:10:45.510Z,102362.80
2023-02-11T15:13:21.883Z,102360.60
2023-02-11T15:16:07.686Z,102365.00
2023-02-11T15:18:45.520Z,102369.20
2023-02-11T15:21:27.538Z,102367.40
2023-02-11T15:24:07.334Z,102371.20
2023-02-11T15:26:35.064Z,102380.00
2023-02-11T15:29:05.050Z,102384.20
2023-02-11T15:31:35.283Z,102387.80
2023-02-11T15:34:09.004Z,102388.20
2023-02-11T15:36:38.694Z,102396.60
2023-02-11T15:39:33.179Z,102401.00
2023-02-11T15:42:27.507Z,102400.20
2023-02-11T15:45:14.607Z,102403.40
2023-02-11T15:47:56.551Z,102406.60
2023-02-11T15:50:37.952Z,102411.80
2023-02-11T15:53:31.950Z,102419.80
2023-02-11T15:56:18.182Z,102426.60
2023-02-11T15:58:49.944Z,102438.40
2023-02-11T16:01:18.230Z,102440.40
2023-02-11T16:03:51.060Z,102451.60
2023-02-11T16:06:40.823Z,102460.00
2023-02-11T16:09:08.792Z,102461.80
2023-02-11T16:11:58.888Z,102472.60
2023-02-11T16:14:28.495Z,102473.00
2023-02-11T16:17:09.793Z,102470.20
2023-02-11T16:19:47.600Z,102465.40
2023-02-11T16:22:27.622Z,102463.60
2023-02-11T16:24:59.762Z,102464.00
2023-02-11T16:27:44.735Z,102470.80
2023-02-11T16:30:43.209Z,102479.80
2023-02-11T16:33:13.144Z,102488.00
2023-02-11T16:35:41.089Z,102493.00
2023-02-11T16:38:10.164Z,102500.60
2023-02-11T16:40:43.561Z,102502.20
2023-02-11T16:43:12.451Z,102506.60
2023-02-11T16:45:42.897Z,102511.40
2023-02-11T16:48:18.261Z,102515.60
2023-02-11T16:50:53.412Z,102521.40
2023-02-11T16:53:27.432Z,102523.40
2023-02-11T16:55:56.240Z,102530.40
2023-02-11T16:58:29.597Z,102531.80
2023-02-11T17:01:03.712Z,102527.80
2023-02-11T17:03:37.957Z,102521.40
2023-02-11T17:06:13.579Z,102522.20
2023-02-11T17:08:41.627Z,102530.60
2023-02-11T17:11:09.364Z,102537.40
2023-02-11T17:13:37.403Z,102547.00
2023-02-11T17:16:07.313Z,102549.00
2023-02-11T17:18:36.432Z,102549.40
2023-02-11T17:21:07.551Z,102552.40
2023-02-11T17:23:35.380Z,102556.00
2023-02-11T17:26:03.997Z,102553.00
2023-02-11T17:28:37.093Z,102559.00
2023-02-11T17:31:09.975Z,102559.40
2023-02-11T17:33:38.133Z,102542.80
2023-02-11T17:36:11.490Z,102541.80
2023-02-11T17:38:39.440Z,102544.20
2023-02-11T17:41:07.572Z,102550.40
2023-02-11T17:43:35.304Z,102550.20
2023-02-11T17:46:07.846Z,102552.20
2023-02-11T17:48:41.078Z,102563.40
2023-02-11T17:51:36.194Z,102564.00
2023-02-11T17:54:08.715Z,102566.00
2023-02-11T17:56:37.485Z,102576.40
2023-02-11T17:59:14.166Z,102582.80
2023-02-11T18:01:44.894Z,102586.40
2023-02-11T18:04:18.490Z,102583.40
2023-02-11T18:06:47.033Z,102581.60
2023-02-11T18:09:18.567Z,102595.20
2023-02-11T18:11:47.400Z,102592.00
2023-02-11T18:14:15.524Z,102592.20
2023-02-11T18:16:46.491Z,102602.80
2023-02-11T18:19:16.496Z,102606.40
2023-02-11T18:21:44.772Z,102609.20
2023-02-11T18:24:13.153Z,102615.00
2023-02-11T18:26:44.926Z,102608.80
2023-02-11T18:29:12.769Z,102603.80
2023-02-11T18:31:40.878Z,102600.80
2023-02-11T18:34:10.747Z,102603.20
2023-02-11T18:36:39.372Z,102603.80
2023-02-11T18:39:11.034Z,102603.00
2023-02-11T18:41:41.443Z,102605.20
2023-02-11T18:44:14.177Z,102606.80
2023-02-11T18:46:43.546Z,102603.00
2023-02-11T18:49:13.218Z,102594.00
2023-02-11T18:51:40.927Z,102590.20
2023-02-11T18:54:08.928Z,102601.00
2023-02-11T18:56:37.121Z,102606.60
2023-02-11T18:59:08.657Z,102613.80
2023-02-11T19:01:40.771Z,102623.40
2023-02-11T19:04:10.435Z,102630.60
2023-02-11T19:06:40.009Z,102632.00
2023-02-11T19:09:11.222Z,102643.40
2023-02-11T19:11:53.939Z,102643.60
2023-02-11T19:14:28.764Z,102637.00
2023-02-11T19:17:02.263Z,102635.60
2023-02-11T19:19:36.852Z,102635.20
2023-02-11T19:22:10.392Z,102638.80
2023-02-11T19:24:42.175Z,102636.00
2023-02-11T19:27:13.752Z,102637.40
2023-02-11T19:29:45.008Z,102645.20
2023-02-11T19:32:12.752Z,102645.20
2023-02-11T19:34:43.119Z,102644.00
2023-02-11T19:37:15.305Z,102642.80
2023-02-11T19:39:44.272Z,102635.60
2023-02-11T19:42:13.846Z,102632.00
2023-02-11T19:44:42.321Z,102633.60
2023-02-11T19:47:10.804Z,102633.40
2023-02-11T19:49:39.549Z,102634.60
2023-02-11T19:52:07.308Z,102639.20
2023-02-11T19:54:35.463Z,102633.20
2023-02-11T19:57:03.642Z,102637.80
2023-02-11T19:59:31.725Z,102632.80
2023-02-11T20:02:01.592Z,102635.00
2023-02-11T20:04:34.800Z,102630.80
2023-02-11T20:07:02.586Z,102641.60
2023-02-11T20:09:31.757Z,102641.80
2023-02-11T20:12:02.163Z,102638.60
2023-02-11T20:14:29.914Z,102646.80
2023-02-11T20:16:58.061Z,102653.60
2023-02-11T20:19:25.849Z,102656.60
2023-02-11T20:21:56.013Z,102656.60
2023-02-11T20:24:26.506Z,102657.60
2023-02-11T20:26:56.252Z,102657.00
2023-02-11T20:29:25.679Z,102648.60
2023-02-11T20:31:54.867Z,102654.60
2023-02-11T20:34:25.446Z,102658.40
2023-02-11T20:36:54.169Z,102667.60
2023-02-11T20:39:25.791Z,102678.20
2023-02-11T20:41:58.491Z,102676.20
2023-02-11T20:44:28.358Z,102674.40
2023-02-11T20:46:56.055Z,102681.60
2023-02-11T20:49:25.022Z,102677.00
2023-02-11T20:51:54.366Z,102678.40
2023-02-11T20:54:26.336Z,102679.20
2023-02-11T20:56:57.082Z,102677.00
2023-02-11T20:59:25.453Z,102685.20
2023-02-11T21:01:59.844Z,102686.00
2023-02-11T21:04:30.867Z,102687.20
2023-02-11T21:07:02.228Z,102691.40
2023-02-11T21:09:33.391Z,102692.20
2023-02-11T21:12:02.906Z,102690.80
2023-02-11T21:14:32.106Z,102687.80
2023-02-11T21:16:59.852Z,102691.60
2023-02-11T21:19:27.734Z,102691.40
2023-02-11T21:21:57.668Z,102691.60
2023-02-11T21:24:25.668Z,102697.00
2023-02-11T21:26:56.456Z,102702.20
2023-02-11T21:29:24.188Z,102705.00
2023-02-11T21:31:52.316Z,102706.60
2023-02-11T21:34:22.019Z,102706.80
2023-02-11T21:36:53.293Z,102704.80
2023-02-11T21:39:21.727Z,102702.80
2023-02-11T21:41:49.670Z,102706.80
2023-02-11T21:44:18.891Z,102705.80
2023-02-11T21:46:47.130Z,102699.80
2023-02-11T21:49:14.835Z,102693.20
2023-02-11T21:51:43.683Z,102695.60
2023-02-11T21:54:18.862Z,102696.40
2023-02-11T21:56:50.020Z,102698.20
2023-02-11T21:59:20.257Z,102690.60
2023-02-11T22:01:48.768Z,102692.80
2023-02-11T22:04:17.812Z,102691.00
2023-02-11T22:06:46.100Z,102689.40
2023-02-11T22:09:15.034Z,102691.40
2023-02-11T22:11:43.862Z,102690.80
2023-02-11T22:14:12.252Z,102693.20
2023-02-11T22:16:40.319Z,102684.20
2023-02-11T22:19:09.415Z,102691.00
2023-02-11T22:21:37.651Z,102700.60
2023-02-11T22:24:05.969Z,102696.80
2023-02-11T22:26:33.951Z,102695.80
2023-02-11T22:29:02.366Z,102700.20
2023-02-11T22:31:36.876Z,102708.00
2023-02-11T22:34:06.179Z,102697.40
2023-02-11T22:36:38.491Z,102703.20
2023-02-11T22:39:15.234Z,102707.00
2023-02-11T22:41:46.953Z,102703.60
2023-02-11T22:44:17.378Z,102707.20
2023-02-11T22:46:45.656Z,102702.20
2023-02-11T22:49:19.609Z,102701.20
2023-02-11T22:51:48.773Z,102699.60
2023-02-11T22:54:19.602Z,102691.20
2023-02-11T22:56:51.639Z,102683.80
2023-02-11T22:59:19.944Z,102685.00
2023-02-11T23:01:48.322Z,102685.60
2023-02-11T23:04:19.688Z,102692.40
2023-02-11T23:06:50.621Z,102701.60
2023-02-11T23:09:18.808Z,102710.60
2023-02-11T23:11:49.429Z,102716.00
2023-02-11T23:14:17.407Z,102708.20
2023-02-11T23:16:46.421Z,102713.00
2023-02-11T23:19:14.313Z,102710.20
2023-02-11T23:21:42.175Z,102711.80
2023-02-11T23:24:15.255Z,102719.00
2023-02-11T23:26:47.183Z,102723.40
2023-02-11T23:29:17.422Z,102723.60
2023-02-11T23:31:47.013Z,102716.40
2023-02-11T23:34:17.353Z,102707.40
2023-02-11T23:36:45.218Z,102711.20
2023-02-11T23:39:15.557Z,102712.20
2023-02-11T23:41:44.997Z,102711.40
2023-02-11T23:44:13.570Z,102710.40
2023-02-11T23:46:42.069Z,102704.20
2023-02-11T23:49:10.984Z,102694.80
2023-02-11T23:51:41.522Z,102694.80
2023-02-11T23:54:14.369Z,102694.20
2023-02-11T23:56:42.848Z,102698.80
2023-02-11T23:59:11.752Z,102693.60
